Time;durP1;ratioP1;P1;durP2;ratioP2;P2;SDS_P1;SDS_P2;PMS_P1;PMS_P2;Temp;Humidity;BMP_temperature;BMP_pressure;BME280_temperature;BME280_humidity;BME280_pressure;Samples;Min_cycle;Max_cycle;Signal;HPM_P1;HPM_P2
2023/09/16 00:01:43;;;;;;;0.60;0.40;;;25.00;55.70;;;;;;6340931;28;20395;-42
2023/09/16 00:04:46;;;;;;;1.02;0.75;;;25.00;55.70;;;;;;6341538;28;20066;-42
2023/09/16 00:07:48;;;;;;;1.05;0.68;;;25.00;55.60;;;;;;6342320;28;20036;-42
2023/09/16 00:10:49;;;;;;;0.73;0.50;;;24.80;55.50;;;;;;6342502;28;20111;-41
2023/09/16 00:13:51;;;;;;;0.80;0.60;;;25.00;55.50;;;;;;6343200;28;20055;-42
2023/09/16 00:16:55;;;;;;;0.65;0.50;;;25.00;55.50;;;;;;6341224;28;20040;-43
2023/09/16 00:19:58;;;;;;;0.90;0.63;;;25.00;55.40;;;;;;6336292;28;20065;-42
2023/09/16 00:23:00;;;;;;;0.90;0.60;;;24.90;55.30;;;;;;6335837;28;20044;-42
2023/09/16 00:26:03;;;;;;;0.82;0.57;;;24.90;55.20;;;;;;6338321;28;20048;-41
2023/09/16 00:29:05;;;;;;;0.50;0.40;;;24.90;55.10;;;;;;6340628;28;20073;-40
2023/09/16 00:32:06;;;;;;;0.65;0.50;;;24.90;55.00;;;;;;6340562;28;20054;-42
2023/09/16 00:35:08;;;;;;;0.75;0.50;;;24.90;55.20;;;;;;6340269;28;20055;-42
2023/09/16 00:38:15;;;;;;;0.40;0.40;;;25.00;55.00;;;;;;6341926;28;20070;-42
2023/09/16 00:41:18;;;;;;;0.65;0.50;;;25.00;55.00;;;;;;6341246;28;20047;-41
2023/09/16 00:44:20;;;;;;;0.68;0.45;;;24.50;54.60;;;;;;6340899;28;20051;-40
2023/09/16 00:47:22;;;;;;;0.73;0.60;;;24.90;54.90;;;;;;6340245;28;20043;-42
2023/09/16 00:50:24;;;;;;;0.65;0.50;;;25.00;55.50;;;;;;6333293;28;20044;-41
2023/09/16 00:53:27;;;;;;;0.68;0.40;;;25.00;54.90;;;;;;6338893;28;20050;-42
2023/09/16 00:56:29;;;;;;;0.60;0.50;;;25.00;54.70;;;;;;6339829;28;20053;-41
2023/09/16 00:59:32;;;;;;;0.30;0.30;;;25.00;54.70;;;;;;6338520;28;20097;-42
2023/09/16 01:02:34;;;;;;;0.63;0.40;;;24.70;54.50;;;;;;6336195;28;20058;-41
2023/09/16 01:05:36;;;;;;;0.90;0.60;;;24.90;54.60;;;;;;6338802;28;20044;-42
2023/09/16 01:08:39;;;;;;;0.85;0.60;;;25.00;54.60;;;;;;6338235;28;20032;-41
2023/09/16 01:11:41;;;;;;;0.52;0.43;;;24.90;54.60;;;;;;6339181;28;20056;-41
2023/09/16 01:14:43;;;;;;;0.68;0.40;;;25.10;54.20;;;;;;6338972;28;20040;-41
2023/09/16 01:17:54;;;;;;;0.40;0.40;;;25.00;54.70;;;;;;6342689;28;20036;-41
2023/09/16 01:20:58;;;;;;;0.40;0.40;;;25.10;54.60;;;;;;6345053;28;20060;-41
2023/09/16 01:24:14;;;;;;;0.50;0.40;;;25.10;54.60;;;;;;6343335;28;20040;-40
2023/09/16 01:27:16;;;;;;;0.65;0.40;;;25.00;54.50;;;;;;6340008;28;20036;-42
2023/09/16 01:30:18;;;;;;;0.70;0.50;;;25.00;54.50;;;;;;6336108;28;20043;-42
2023/09/16 01:33:25;;;;;;;0.70;0.43;;;24.90;54.50;;;;;;6342244;28;20117;-42
2023/09/16 01:36:31;;;;;;;1.10;0.50;;;25.00;54.40;;;;;;6340671;28;20040;-43
2023/09/16 01:39:35;;;;;;;0.60;0.50;;;25.10;54.40;;;;;;6341818;28;20093;-42
2023/09/16 01:42:39;;;;;;;0.57;0.50;;;25.00;54.40;;;;;;6342044;28;20048;-42
2023/09/16 01:45:42;;;;;;;0.80;0.60;;;25.00;54.40;;;;;;6322875;28;20123;-42
2023/09/16 01:48:44;;;;;;;0.77;0.50;;;25.10;54.40;;;;;;6341192;28;20091;-42
2023/09/16 01:51:48;;;;;;;0.85;0.60;;;25.10;54.50;;;;;;6340518;28;20032;-42
2023/09/16 01:54:50;;;;;;;0.65;0.60;;;24.90;54.30;;;;;;6340937;28;20040;-42
2023/09/16 01:57:52;;;;;;;0.82;0.70;;;25.10;54.50;;;;;;6340436;28;20067;-42
2023/09/16 02:00:54;;;;;;;0.60;0.47;;;24.50;54.00;;;;;;6340570;28;20092;-43
2023/09/16 02:03:58;;;;;;;0.88;0.60;;;25.00;53.90;;;;;;6339811;28;20033;-42
2023/09/16 02:07:00;;;;;;;0.70;0.70;;;25.00;54.40;;;;;;6339316;28;20545;-42
2023/09/16 02:10:03;;;;;;;0.52;0.50;;;25.00;54.30;;;;;;6339580;28;20081;-42
2023/09/16 02:13:05;;;;;;;0.70;0.60;;;24.90;54.20;;;;;;6339014;28;20091;-42
2023/09/16 02:16:10;;;;;;;0.60;0.47;;;25.10;54.30;;;;;;6339991;28;20069;-43
2023/09/16 02:19:13;;;;;;;1.35;0.40;;;25.00;54.30;;;;;;6339421;28;20111;-43
2023/09/16 02:22:14;;;;;;;0.60;0.45;;;25.00;54.30;;;;;;6339595;28;20040;-44
2023/09/16 02:25:16;;;;;;;0.52;0.40;;;25.10;54.40;;;;;;6341186;28;20043;-43
2023/09/16 02:28:18;;;;;;;1.42;0.65;;;25.10;54.30;;;;;;6339257;28;20059;-42
2023/09/16 02:31:20;;;;;;;0.65;0.50;;;25.00;54.30;;;;;;6340095;28;20044;-42
2023/09/16 02:34:21;;;;;;;0.50;0.50;;;25.10;54.50;;;;;;6340457;28;20040;-42
2023/09/16 02:37:23;;;;;;;0.63;0.60;;;25.10;54.60;;;;;;6339990;28;20070;-42
2023/09/16 02:40:25;;;;;;;0.50;0.40;;;25.10;54.50;;;;;;6340410;28;20495;-41
2023/09/16 02:43:30;;;;;;;0.40;0.40;;;25.00;54.60;;;;;;6340719;28;20036;-43
2023/09/16 02:46:32;;;;;;;0.45;0.30;;;25.10;54.70;;;;;;6340475;28;20040;-42
2023/09/16 02:49:36;;;;;;;0.50;0.50;;;25.00;54.80;;;;;;6339480;28;20052;-42
2023/09/16 02:52:39;;;;;;;0.80;0.50;;;25.00;52.30;;;;;;6339433;28;20078;-42
2023/09/16 02:55:41;;;;;;;0.47;0.47;;;25.00;54.90;;;;;;6339297;28;20039;-42
2023/09/16 02:58:46;;;;;;;0.73;0.40;;;24.90;54.80;;;;;;6338887;28;20040;-42
2023/09/16 03:01:49;;;;;;;0.63;0.47;;;25.10;55.20;;;;;;6338237;28;20499;-42
2023/09/16 03:04:53;;;;;;;0.55;0.52;;;24.60;55.00;;;;;;6338812;28;20059;-42
2023/09/16 03:07:59;;;;;;;0.60;0.50;;;25.00;55.40;;;;;;6338159;28;20032;-42
2023/09/16 03:11:02;;;;;;;0.43;0.43;;;24.90;55.30;;;;;;6338247;28;20028;-42
2023/09/16 03:14:04;;;;;;;0.73;0.43;;;25.00;55.40;;;;;;6337102;28;20042;-42
2023/09/16 03:17:06;;;;;;;0.65;0.52;;;25.10;55.70;;;;;;6337106;28;20051;-41
2023/09/16 03:20:10;;;;;;;0.52;0.40;;;25.00;55.90;;;;;;6336157;28;20048;-42
2023/09/16 03:23:12;;;;;;;0.50;0.50;;;25.10;55.80;;;;;;6336467;28;20232;-42
2023/09/16 03:26:15;;;;;;;0.32;0.30;;;25.00;56.10;;;;;;6336075;28;20067;-42
2023/09/16 03:29:24;;;;;;;0.52;0.43;;;24.60;55.80;;;;;;6337951;28;20077;-42
2023/09/16 03:32:28;;;;;;;0.30;0.30;;;25.00;56.30;;;;;;6337257;28;20294;-41
2023/09/16 03:35:34;;;;;;;0.60;0.60;;;25.00;56.30;;;;;;6338650;28;20032;-42
2023/09/16 03:38:45;;;;;;;0.60;0.50;;;25.00;56.50;;;;;;6338450;28;20043;-41
2023/09/16 03:41:47;;;;;;;0.65;0.45;;;25.00;56.40;;;;;;6337842;28;20047;-42
2023/09/16 03:44:50;;;;;;;0.30;0.22;;;24.90;56.60;;;;;;6338160;28;20040;-42
2023/09/16 03:47:53;;;;;;;0.60;0.43;;;25.00;56.60;;;;;;6338520;28;20122;-44
2023/09/16 03:50:55;;;;;;;0.70;0.47;;;24.90;56.80;;;;;;6338100;28;20040;-42
2023/09/16 03:53:59;;;;;;;0.55;0.47;;;25.00;56.90;;;;;;6338491;28;20047;-42
2023/09/16 03:57:04;;;;;;;0.43;0.30;;;25.00;56.90;;;;;;6337598;28;20040;-42
2023/09/16 04:00:10;;;;;;;0.40;0.32;;;24.90;57.00;;;;;;6321030;28;20092;-43
2023/09/16 04:03:15;;;;;;;0.55;0.50;;;25.00;57.10;;;;;;6311844;28;20036;-43
2023/09/16 04:06:17;;;;;;;0.40;0.35;;;24.90;57.30;;;;;;6312232;28;20063;-42
2023/09/16 04:09:20;;;;;;;0.50;0.50;;;25.00;57.40;;;;;;6312178;28;20034;-41
2023/09/16 04:12:21;;;;;;;0.70;0.50;;;24.90;57.40;;;;;;6310923;28;20067;-43
2023/09/16 04:15:25;;;;;;;0.50;0.47;;;24.70;57.40;;;;;;6311108;28;20060;-42
2023/09/16 04:18:26;;;;;;;0.40;0.40;;;24.90;57.60;;;;;;6311325;28;20047;-41
2023/09/16 04:21:29;;;;;;;0.40;0.40;;;24.80;57.80;;;;;;6311473;28;20042;-42
2023/09/16 04:24:32;;;;;;;0.50;0.40;;;24.90;57.80;;;;;;6311322;28;20058;-41
2023/09/16 04:27:34;;;;;;;0.50;0.40;;;24.80;58.00;;;;;;6310229;28;20033;-43
2023/09/16 04:30:47;;;;;;;0.40;0.40;;;24.90;58.00;;;;;;6311499;28;20033;-43
2023/09/16 04:33:54;;;;;;;0.40;0.40;;;25.00;58.10;;;;;;6309929;28;20039;-44
2023/09/16 04:36:59;;;;;;;0.47;0.40;;;25.00;55.80;;;;;;6311363;28;20036;-42
2023/09/16 04:40:07;;;;;;;0.50;0.30;;;25.00;58.30;;;;;;6310713;28;20036;-42
2023/09/16 04:43:12;;;;;;;0.40;0.40;;;24.90;58.30;;;;;;6311368;28;20036;-41
2023/09/16 04:46:16;;;;;;;0.32;0.32;;;24.90;58.30;;;;;;6311069;28;20052;-42
2023/09/16 04:49:21;;;;;;;0.40;0.40;;;24.80;58.40;;;;;;6311300;28;20044;-43
2023/09/16 04:52:25;;;;;;;0.63;0.40;;;24.90;58.50;;;;;;6315871;28;20040;-44
2023/09/16 04:55:27;;;;;;;0.38;0.38;;;24.90;58.40;;;;;;6315506;28;20051;-43
2023/09/16 04:58:28;;;;;;;0.70;0.40;;;24.80;58.50;;;;;;6315400;28;20380;-41
2023/09/16 05:01:31;;;;;;;0.30;0.20;;;24.90;58.50;;;;;;6315125;28;20025;-42
2023/09/16 05:04:33;;;;;;;0.30;0.30;;;24.90;58.40;;;;;;6330895;28;20049;-42
2023/09/16 05:07:34;;;;;;;0.80;0.40;;;24.90;59.10;;;;;;6315349;28;20048;-41
2023/09/16 05:10:37;;;;;;;0.47;0.38;;;24.80;58.40;;;;;;6315068;28;20039;-41
2023/09/16 05:13:39;;;;;;;0.57;0.50;;;24.80;58.30;;;;;;6314783;28;20063;-41
2023/09/16 05:16:44;;;;;;;0.30;0.30;;;24.90;58.40;;;;;;6314479;28;20044;-41
2023/09/16 05:19:47;;;;;;;0.43;0.30;;;24.90;58.30;;;;;;6314283;28;20434;-42
2023/09/16 05:22:50;;;;;;;0.38;0.30;;;24.90;58.40;;;;;;6315050;28;20037;-42
2023/09/16 05:25:55;;;;;;;0.80;0.50;;;24.80;58.20;;;;;;6327919;28;20036;-43
2023/09/16 05:29:05;;;;;;;0.30;0.30;;;24.80;58.30;;;;;;6313489;28;20126;-41
2023/09/16 05:32:10;;;;;;;0.30;0.30;;;24.80;58.40;;;;;;6313117;28;20092;-42
2023/09/16 05:35:11;;;;;;;0.40;0.40;;;24.90;58.30;;;;;;6311686;28;20450;-41
2023/09/16 05:38:13;;;;;;;0.40;0.30;;;24.90;58.30;;;;;;6313328;28;20499;-41
2023/09/16 05:41:15;;;;;;;0.40;0.40;;;24.80;58.90;;;;;;6312363;28;20032;-40
2023/09/16 05:44:20;;;;;;;0.40;0.40;;;25.00;58.30;;;;;;6312201;28;20045;-42
2023/09/16 05:47:22;;;;;;;0.30;0.30;;;24.70;58.10;;;;;;6327163;28;20332;-41
2023/09/16 05:50:24;;;;;;;0.50;0.50;;;24.20;57.80;;;;;;6311988;28;20105;-41
2023/09/16 05:53:26;;;;;;;0.40;0.30;;;24.80;58.20;;;;;;6312826;28;20041;-42
2023/09/16 05:56:37;;;;;;;0.30;0.30;;;24.80;58.00;;;;;;6312909;28;20094;-41
2023/09/16 05:59:39;;;;;;;0.70;0.40;;;24.90;58.20;;;;;;6313217;28;20032;-42
2023/09/16 06:02:41;;;;;;;0.52;0.50;;;24.80;58.10;;;;;;6313187;28;20033;-42
2023/09/16 06:05:43;;;;;;;0.52;0.40;;;24.90;58.20;;;;;;6311544;28;20063;-42
2023/09/16 06:08:44;;;;;;;0.40;0.40;;;24.80;58.20;;;;;;6311439;28;20040;-41
2023/09/16 06:11:46;;;;;;;0.60;0.30;;;24.90;58.30;;;;;;6310243;28;20058;-42
2023/09/16 06:14:47;;;;;;;0.50;0.50;;;24.90;58.30;;;;;;6309923;28;20041;-42
2023/09/16 06:17:50;;;;;;;0.32;0.30;;;24.90;58.30;;;;;;6309668;28;20037;-41
2023/09/16 06:20:51;;;;;;;0.55;0.40;;;24.80;58.20;;;;;;6310339;28;20063;-43
2023/09/16 06:23:53;;;;;;;0.68;0.50;;;24.80;58.30;;;;;;6311888;28;20100;-41
2023/09/16 06:26:54;;;;;;;0.50;0.50;;;24.70;58.10;;;;;;6312435;28;20624;-42
2023/09/16 06:29:58;;;;;;;0.70;0.40;;;24.70;58.30;;;;;;6312096;28;20039;-42
2023/09/16 06:33:01;;;;;;;0.45;0.35;;;24.80;58.10;;;;;;6311364;28;20028;-42
2023/09/16 06:36:03;;;;;;;0.40;0.40;;;24.70;58.10;;;;;;6309927;28;20037;-43
2023/09/16 06:39:07;;;;;;;0.30;0.30;;;24.70;58.10;;;;;;6310218;28;20481;-41
2023/09/16 06:42:08;;;;;;;1.00;0.60;;;24.70;58.20;;;;;;6310483;28;20036;-42
2023/09/16 06:45:11;;;;;;;0.50;0.40;;;24.70;58.10;;;;;;6311295;28;20114;-41
2023/09/16 06:48:13;;;;;;;0.77;0.43;;;24.70;58.00;;;;;;6310586;28;20056;-42
2023/09/16 06:51:15;;;;;;;0.30;0.30;;;24.40;58.00;;;;;;6308646;28;20032;-41
2023/09/16 06:54:16;;;;;;;0.40;0.40;;;24.70;58.30;;;;;;6305132;28;20104;-41
2023/09/16 06:57:17;;;;;;;0.80;0.60;;;24.30;58.00;;;;;;6303937;28;20043;-42
2023/09/16 07:00:29;;;;;;;0.50;0.40;;;24.70;58.30;;;;;;6304029;28;20067;-43
2023/09/16 07:03:31;;;;;;;0.60;0.45;;;24.70;58.30;;;;;;6304622;28;20037;-41
2023/09/16 07:06:34;;;;;;;0.60;0.43;;;24.30;58.00;;;;;;6304115;28;20041;-41
2023/09/16 07:09:36;;;;;;;0.40;0.40;;;24.80;58.30;;;;;;6304021;28;20040;-42
2023/09/16 07:12:37;;;;;;;0.40;0.30;;;24.40;58.20;;;;;;6304673;28;20403;-41
2023/09/16 07:15:39;;;;;;;0.40;0.40;;;24.30;57.90;;;;;;6302866;28;20128;-43
2023/09/16 07:18:41;;;;;;;0.50;0.38;;;24.70;58.30;;;;;;6303281;28;20094;-41
2023/09/16 07:21:43;;;;;;;0.82;0.40;;;24.50;58.10;;;;;;6304273;28;20040;-41
2023/09/16 07:24:48;;;;;;;0.30;0.30;;;24.70;58.20;;;;;;6304117;28;20100;-43
2023/09/16 07:27:49;;;;;;;0.60;0.43;;;24.60;58.10;;;;;;6304282;28;20056;-42
2023/09/16 07:30:52;;;;;;;0.40;0.30;;;24.70;58.30;;;;;;6306211;28;20037;-41
2023/09/16 07:33:54;;;;;;;0.47;0.40;;;24.70;58.20;;;;;;6288539;28;20098;-41
2023/09/16 07:36:56;;;;;;;0.40;0.40;;;24.70;58.30;;;;;;6306381;28;20056;-42
2023/09/16 07:39:58;;;;;;;0.57;0.50;;;24.80;58.20;;;;;;6305614;28;20040;-43
2023/09/16 07:43:00;;;;;;;0.35;0.35;;;24.50;58.30;;;;;;6307087;28;20045;-42
2023/09/16 07:46:02;;;;;;;0.30;0.25;;;24.70;58.40;;;;;;6306609;28;20051;-43
2023/09/16 07:49:04;;;;;;;0.93;0.60;;;24.70;58.30;;;;;;6308116;28;20048;-41
2023/09/16 07:52:06;;;;;;;0.40;0.40;;;24.70;58.30;;;;;;6306952;28;20086;-41
2023/09/16 07:55:08;;;;;;;0.32;0.32;;;24.70;58.40;;;;;;6307028;28;20056;-42
2023/09/16 07:58:10;;;;;;;0.40;0.40;;;24.80;58.40;;;;;;6305994;28;20045;-44
2023/09/16 08:01:12;;;;;;;0.30;0.30;;;25.00;58.60;;;;;;6306128;28;20115;-42
2023/09/16 08:04:16;;;;;;;0.73;0.60;;;24.70;58.60;;;;;;6304675;28;20594;-43
2023/09/16 08:07:18;;;;;;;0.50;0.50;;;24.60;58.40;;;;;;6304592;28;20032;-42
2023/09/16 08:10:22;;;;;;;0.30;0.30;;;24.60;58.70;;;;;;6304661;28;20048;-41
2023/09/16 08:13:24;;;;;;;0.50;0.40;;;24.60;57.10;;;;;;6302953;28;20045;-41
2023/09/16 08:16:25;;;;;;;0.43;0.40;;;24.70;58.90;;;;;;6303790;28;20041;-42
2023/09/16 08:19:27;;;;;;;0.52;0.43;;;24.80;59.00;;;;;;6302712;28;20040;-42
2023/09/16 08:22:32;;;;;;;0.63;0.40;;;24.70;59.10;;;;;;6302631;28;20539;-43
2023/09/16 08:25:34;;;;;;;0.65;0.57;;;24.40;57.30;;;;;;6305177;28;20040;-43
2023/09/16 08:28:36;;;;;;;0.63;0.50;;;24.40;59.10;;;;;;6307648;28;20044;-44
2023/09/16 08:31:37;;;;;;;0.68;0.57;;;24.70;59.30;;;;;;6307041;28;20040;-41
2023/09/16 08:34:39;;;;;;;0.60;0.60;;;24.80;59.50;;;;;;6306911;28;20044;-41
2023/09/16 08:37:41;;;;;;;0.40;0.38;;;24.70;59.50;;;;;;6308265;28;20519;-41
2023/09/16 08:40:42;;;;;;;0.65;0.50;;;24.70;59.70;;;;;;6307579;28;20073;-43
2023/09/16 08:43:47;;;;;;;0.50;0.50;;;24.70;59.60;;;;;;6310443;28;20040;-42
2023/09/16 08:46:57;;;;;;;0.50;0.40;;;24.40;59.50;;;;;;6310789;28;20044;-41
2023/09/16 08:50:05;;;;;;;0.47;0.40;;;24.80;59.80;;;;;;6311591;28;20067;-42
2023/09/16 08:53:10;;;;;;;0.85;0.60;;;24.80;59.90;;;;;;6311944;28;20099;-43
2023/09/16 08:56:13;;;;;;;0.60;0.60;;;24.70;60.00;;;;;;6312592;28;20252;-41
2023/09/16 08:59:16;;;;;;;0.85;0.45;;;24.70;60.10;;;;;;6311526;28;20060;-41
2023/09/16 09:02:18;;;;;;;0.65;0.50;;;24.80;60.30;;;;;;6311874;28;20041;-42
2023/09/16 09:05:23;;;;;;;0.47;0.43;;;24.30;60.20;;;;;;6310557;28;20049;-43
2023/09/16 09:08:25;;;;;;;0.60;0.50;;;24.70;61.00;;;;;;6309949;28;20036;-42
2023/09/16 09:11:30;;;;;;;0.60;0.50;;;24.70;60.60;;;;;;6310188;28;20590;-41
2023/09/16 09:14:33;;;;;;;0.50;0.40;;;24.90;60.80;;;;;;6310661;28;20506;-43
2023/09/16 09:17:39;;;;;;;0.50;0.47;;;24.80;60.70;;;;;;6310986;28;20095;-42
2023/09/16 09:20:41;;;;;;;0.60;0.57;;;24.90;60.90;;;;;;6310472;28;20099;-41
2023/09/16 09:23:43;;;;;;;0.57;0.57;;;24.90;61.00;;;;;;6310635;28;20067;-41
2023/09/16 09:26:45;;;;;;;0.63;0.50;;;24.90;61.00;;;;;;6308011;28;20049;-41
2023/09/16 09:29:46;;;;;;;0.93;0.60;;;24.70;61.20;;;;;;6310286;28;20062;-43
2023/09/16 09:32:48;;;;;;;0.73;0.68;;;24.90;61.40;;;;;;6310790;28;20039;-42
2023/09/16 09:36:08;;;;;;;1.00;0.75;;;24.90;61.60;;;;;;6310067;28;20044;-41
2023/09/16 09:39:10;;;;;;;0.88;0.70;;;24.80;61.50;;;;;;6310660;28;20037;-41
2023/09/16 09:42:18;;;;;;;0.75;0.60;;;24.70;61.70;;;;;;6310633;28;20036;-41
2023/09/16 09:45:21;;;;;;;0.70;0.60;;;24.80;61.80;;;;;;6310450;28;20033;-43
2023/09/16 09:48:23;;;;;;;0.60;0.60;;;24.90;62.00;;;;;;6293407;28;20044;-41
2023/09/16 09:51:30;;;;;;;0.77;0.68;;;24.70;62.10;;;;;;6312526;28;20079;-42
2023/09/16 09:54:33;;;;;;;0.82;0.68;;;24.90;62.30;;;;;;6311347;28;20399;-41
2023/09/16 09:57:36;;;;;;;0.75;0.60;;;25.00;62.40;;;;;;6309965;28;20402;-41
2023/09/16 10:00:46;;;;;;;0.80;0.63;;;25.00;62.70;;;;;;6311325;28;20043;-42
2023/09/16 10:03:49;;;;;;;0.60;0.50;;;24.90;62.80;;;;;;6308914;28;20064;-42
2023/09/16 10:06:52;;;;;;;0.80;0.60;;;25.00;63.00;;;;;;6309585;28;20040;-41
2023/09/16 10:09:53;;;;;;;0.70;0.55;;;24.90;62.90;;;;;;6307151;28;20499;-42
2023/09/16 10:12:56;;;;;;;0.65;0.50;;;25.00;63.10;;;;;;6307572;28;20037;-42
2023/09/16 10:16:00;;;;;;;0.55;0.52;;;25.00;63.00;;;;;;6307476;28;20044;-42
2023/09/16 10:19:02;;;;;;;0.80;0.63;;;25.10;63.20;;;;;;6307431;28;20047;-41
2023/09/16 10:22:05;;;;;;;0.82;0.70;;;24.50;62.90;;;;;;6308973;28;20106;-42
2023/09/16 10:25:08;;;;;;;0.60;0.60;;;24.90;63.20;;;;;;6309148;28;20049;-42
2023/09/16 10:28:12;;;;;;;0.93;0.70;;;24.90;63.10;;;;;;6310132;28;20037;-42
2023/09/16 10:31:13;;;;;;;0.73;0.57;;;24.90;63.20;;;;;;6307843;28;20403;-44
2023/09/16 10:34:15;;;;;;;0.50;0.40;;;25.00;63.50;;;;;;6309674;28;20051;-42
2023/09/16 10:37:17;;;;;;;0.50;0.50;;;25.00;63.60;;;;;;6310132;28;20067;-43
2023/09/16 10:40:23;;;;;;;0.40;0.40;;;24.50;63.20;;;;;;6309959;28;20086;-43
2023/09/16 10:43:25;;;;;;;0.55;0.40;;;25.10;63.60;;;;;;6310722;28;20072;-41
2023/09/16 10:46:29;;;;;;;0.55;0.50;;;25.10;63.80;;;;;;6311752;28;20090;-41
2023/09/16 10:49:38;;;;;;;0.60;0.50;;;25.10;63.70;;;;;;6311410;28;20040;-40
2023/09/16 10:52:45;;;;;;;0.63;0.63;;;25.10;63.70;;;;;;6311345;28;20048;-41
2023/09/16 10:55:57;;;;;;;0.60;0.43;;;25.00;63.60;;;;;;6310898;28;20052;-42
2023/09/16 10:59:07;;;;;;;0.70;0.70;;;25.20;63.80;;;;;;6311828;28;20033;-43
2023/09/16 11:02:18;;;;;;;0.80;0.70;;;25.10;63.80;;;;;;6311992;28;20041;-42
2023/09/16 11:05:19;;;;;;;0.50;0.43;;;24.70;63.60;;;;;;6311652;28;20076;-43
2023/09/16 11:08:25;;;;;;;0.60;0.50;;;25.20;64.10;;;;;;6311668;28;20048;-42
2023/09/16 11:11:27;;;;;;;0.50;0.50;;;25.10;63.80;;;;;;6311135;28;20087;-41
2023/09/16 11:14:29;;;;;;;0.70;0.50;;;25.20;64.00;;;;;;6311465;28;20051;-42
2023/09/16 11:17:31;;;;;;;0.55;0.50;;;25.10;64.00;;;;;;6311720;28;20071;-42
2023/09/16 11:20:36;;;;;;;0.80;0.60;;;25.00;64.10;;;;;;6311451;28;20041;-41
2023/09/16 11:23:38;;;;;;;0.80;0.60;;;25.10;64.00;;;;;;6309680;28;20064;-43
2023/09/16 11:26:40;;;;;;;0.60;0.40;;;25.10;64.10;;;;;;6309760;28;20045;-42
2023/09/16 11:29:42;;;;;;;0.70;0.70;;;25.10;64.00;;;;;;6308452;28;20041;-43
2023/09/16 11:33:08;;;;;;;0.50;0.45;;;25.20;62.40;;;;;;6310164;28;20044;-42
2023/09/16 11:36:12;;;;;;;0.90;0.63;;;25.20;64.30;;;;;;6309194;28;20112;-42
2023/09/16 11:39:17;;;;;;;0.60;0.50;;;25.20;64.10;;;;;;6310323;28;20047;-41
2023/09/16 11:42:19;;;;;;;0.70;0.52;;;25.30;63.10;;;;;;6310837;28;20083;-42
2023/09/16 11:45:24;;;;;;;0.82;0.63;;;25.20;64.50;;;;;;6310679;28;20040;-43
2023/09/16 11:48:27;;;;;;;0.88;0.60;;;25.30;64.40;;;;;;6311189;28;20047;-43
2023/09/16 11:51:51;;;;;;;0.63;0.43;;;25.30;64.60;;;;;;6310594;28;20064;-43
2023/09/16 11:54:55;;;;;;;0.93;0.57;;;25.30;64.50;;;;;;6335393;28;20449;-44
2023/09/16 11:57:57;;;;;;;0.70;0.52;;;25.20;64.50;;;;;;6336415;28;20040;-41
2023/09/16 12:01:00;;;;;;;0.60;0.52;;;25.30;64.60;;;;;;6336608;28;20039;-42
2023/09/16 12:04:04;;;;;;;1.13;0.77;;;25.30;64.60;;;;;;6338247;28;20040;-43
2023/09/16 12:07:10;;;;;;;0.85;0.70;;;25.30;64.70;;;;;;6336979;28;20044;-43
2023/09/16 12:10:14;;;;;;;0.90;0.60;;;25.30;64.60;;;;;;6336206;28;20044;-42
2023/09/16 12:13:26;;;;;;;0.55;0.47;;;25.20;64.60;;;;;;6337515;28;20039;-41
2023/09/16 12:16:28;;;;;;;1.00;0.57;;;25.20;64.60;;;;;;6337859;28;20052;-42
2023/09/16 12:19:31;;;;;;;0.70;0.60;;;25.20;64.70;;;;;;6336765;28;20115;-42
2023/09/16 12:22:33;;;;;;;0.68;0.52;;;25.30;64.80;;;;;;6336837;28;20067;-42
2023/09/16 12:25:40;;;;;;;0.60;0.55;;;25.30;64.70;;;;;;6336431;28;20064;-42
2023/09/16 12:28:42;;;;;;;0.73;0.60;;;24.90;64.40;;;;;;6337317;28;20115;-43
2023/09/16 12:31:44;;;;;;;0.50;0.50;;;25.20;64.50;;;;;;6337656;28;20064;-42
2023/09/16 12:35:03;;;;;;;0.50;0.50;;;25.20;64.30;;;;;;6335792;28;20044;-43
2023/09/16 12:38:05;;;;;;;0.57;0.50;;;25.20;64.40;;;;;;6337286;28;20044;-43
2023/09/16 12:41:09;;;;;;;0.52;0.50;;;25.40;64.40;;;;;;6336311;28;20036;-42
2023/09/16 12:44:11;;;;;;;0.47;0.40;;;25.30;64.30;;;;;;6336424;28;20058;-42
2023/09/16 12:47:17;;;;;;;0.40;0.40;;;25.30;64.30;;;;;;6335852;28;20048;-41
2023/09/16 12:50:18;;;;;;;0.63;0.60;;;25.40;61.80;;;;;;6335825;28;20047;-42
2023/09/16 12:53:23;;;;;;;0.35;0.35;;;25.40;64.30;;;;;;6335781;28;20040;-43
2023/09/16 12:56:26;;;;;;;0.77;0.50;;;25.40;64.10;;;;;;6335611;28;20071;-41
2023/09/16 12:59:29;;;;;;;0.70;0.60;;;25.30;64.00;;;;;;6335534;28;20040;-43
2023/09/16 13:02:36;;;;;;;0.52;0.40;;;25.30;64.00;;;;;;6336437;28;20040;-42
2023/09/16 13:05:38;;;;;;;0.55;0.40;;;25.30;64.40;;;;;;6337863;28;20044;-42
2023/09/16 13:08:41;;;;;;;0.60;0.40;;;25.40;64.00;;;;;;6338396;28;20039;-43
2023/09/16 13:11:49;;;;;;;0.90;0.50;;;25.40;63.80;;;;;;6338798;28;20109;-42
2023/09/16 13:14:51;;;;;;;0.90;0.55;;;25.40;63.70;;;;;;6342715;28;20075;-42
2023/09/16 13:17:59;;;;;;;0.50;0.43;;;25.40;63.90;;;;;;6341833;28;20399;-42
2023/09/16 13:21:01;;;;;;;0.50;0.43;;;25.30;63.70;;;;;;6340853;28;20036;-42
2023/09/16 13:24:04;;;;;;;0.50;0.50;;;25.40;63.80;;;;;;6342859;28;20502;-42
2023/09/16 13:27:08;;;;;;;0.43;0.40;;;25.40;63.80;;;;;;6341627;28;20055;-42
2023/09/16 13:30:10;;;;;;;0.60;0.50;;;25.30;63.70;;;;;;6341292;28;20093;-42
2023/09/16 13:33:12;;;;;;;1.05;0.60;;;25.30;63.70;;;;;;6342390;28;20066;-43
2023/09/16 13:36:14;;;;;;;0.43;0.32;;;25.00;64.30;;;;;;6340511;28;20032;-41
2023/09/16 13:39:16;;;;;;;0.70;0.60;;;25.30;63.90;;;;;;6338792;28;20040;-42
2023/09/16 13:42:21;;;;;;;0.50;0.50;;;25.30;63.90;;;;;;6339602;28;20044;-42
2023/09/16 13:45:23;;;;;;;0.60;0.60;;;25.30;62.20;;;;;;6341277;28;20069;-42
2023/09/16 13:48:25;;;;;;;0.75;0.55;;;25.30;63.60;;;;;;6338647;28;20070;-42
2023/09/16 13:51:27;;;;;;;0.80;0.60;;;25.20;64.10;;;;;;6339728;28;20043;-41
2023/09/16 13:54:29;;;;;;;0.60;0.50;;;25.40;64.10;;;;;;6339599;28;20032;-42
2023/09/16 13:57:31;;;;;;;0.73;0.60;;;25.20;64.70;;;;;;6338694;28;20048;-41
2023/09/16 14:00:33;;;;;;;0.80;0.43;;;25.20;64.20;;;;;;6339674;28;20094;-42
2023/09/16 14:03:34;;;;;;;0.50;0.50;;;24.90;64.10;;;;;;6339004;28;20100;-42
2023/09/16 14:06:36;;;;;;;0.55;0.47;;;25.50;64.60;;;;;;6338391;28;20062;-43
2023/09/16 14:09:37;;;;;;;0.45;0.45;;;25.30;64.60;;;;;;6338301;28;20044;-44
2023/09/16 14:12:44;;;;;;;0.70;0.60;;;25.40;64.70;;;;;;6338247;28;20122;-42
2023/09/16 14:15:46;;;;;;;0.55;0.50;;;25.30;62.10;;;;;;6339653;28;20040;-43
2023/09/16 14:18:48;;;;;;;0.55;0.40;;;25.20;64.70;;;;;;6340563;28;20044;-42
2023/09/16 14:21:54;;;;;;;0.50;0.40;;;25.20;63.20;;;;;;6340018;28;20047;-41
2023/09/16 14:24:56;;;;;;;0.50;0.50;;;25.40;64.70;;;;;;6339055;28;20127;-43
2023/09/16 14:27:58;;;;;;;0.50;0.50;;;25.30;64.80;;;;;;6338519;28;20318;-43
2023/09/16 14:31:05;;;;;;;0.60;0.47;;;25.30;64.80;;;;;;6340130;28;20092;-42
2023/09/16 14:34:08;;;;;;;0.60;0.50;;;24.90;64.40;;;;;;6339858;28;20048;-43
2023/09/16 14:37:10;;;;;;;0.60;0.50;;;25.20;64.90;;;;;;6339521;28;20040;-41
2023/09/16 14:40:12;;;;;;;0.52;0.52;;;25.30;64.90;;;;;;6340168;28;20040;-41
2023/09/16 14:43:14;;;;;;;0.70;0.70;;;25.20;64.90;;;;;;6339167;28;20039;-41
2023/09/16 14:46:16;;;;;;;0.63;0.50;;;25.20;64.90;;;;;;6340140;28;20042;-43
2023/09/16 14:49:22;;;;;;;0.68;0.50;;;24.90;64.80;;;;;;6338417;28;20036;-41
2023/09/16 14:52:25;;;;;;;0.50;0.50;;;25.20;65.10;;;;;;6337465;28;20100;-42
2023/09/16 14:55:27;;;;;;;0.50;0.47;;;25.30;65.10;;;;;;6338879;28;20059;-41
2023/09/16 14:58:29;;;;;;;0.50;0.50;;;25.20;65.00;;;;;;6336972;28;20044;-42
2023/09/16 15:01:31;;;;;;;0.50;0.50;;;25.30;65.20;;;;;;6336732;28;20511;-42
2023/09/16 15:04:33;;;;;;;0.70;0.60;;;25.30;65.10;;;;;;6337975;28;20039;-42
2023/09/16 15:07:34;;;;;;;0.57;0.50;;;25.30;65.30;;;;;;6338275;28;20064;-42
2023/09/16 15:10:36;;;;;;;0.60;0.50;;;24.90;65.00;;;;;;6337869;28;20100;-44
2023/09/16 15:13:38;;;;;;;0.60;0.50;;;25.20;65.30;;;;;;6338152;28;20067;-42
2023/09/16 15:16:40;;;;;;;0.52;0.52;;;25.20;65.20;;;;;;6337221;28;20048;-41
2023/09/16 15:19:42;;;;;;;0.43;0.43;;;25.30;65.50;;;;;;6338032;28;20032;-42
2023/09/16 15:22:47;;;;;;;0.70;0.63;;;25.30;64.80;;;;;;6337834;28;20036;-41
2023/09/16 15:25:52;;;;;;;0.73;0.60;;;25.20;65.40;;;;;;6338629;28;20050;-42
2023/09/16 15:28:55;;;;;;;0.68;0.52;;;25.10;65.40;;;;;;6337735;28;20062;-42
2023/09/16 15:31:56;;;;;;;0.60;0.55;;;25.20;65.40;;;;;;6339097;28;20036;-42
2023/09/16 15:35:23;;;;;;;1.50;0.60;;;24.90;65.40;;;;;;6323589;28;20046;-42
2023/09/16 15:38:24;;;;;;;0.50;0.50;;;25.40;65.80;;;;;;6339010;28;20481;-42
2023/09/16 15:41:26;;;;;;;0.60;0.50;;;25.30;65.70;;;;;;6339636;28;20044;-42
2023/09/16 15:44:28;;;;;;;0.50;0.50;;;25.30;65.80;;;;;;6338866;28;20044;-42
2023/09/16 15:47:30;;;;;;;0.50;0.50;;;25.40;65.70;;;;;;6338782;28;20036;-41
2023/09/16 15:50:44;;;;;;;0.95;0.68;;;25.30;65.80;;;;;;6339132;28;20036;-42
2023/09/16 15:53:45;;;;;;;0.50;0.47;;;25.10;66.10;;;;;;6337515;28;20040;-42
2023/09/16 15:56:48;;;;;;;0.60;0.60;;;25.40;65.80;;;;;;6338333;28;20256;-42